Flight Track Log - Related Links

Times and Time Zones

All times are in EST time to prevent confusion due to time zone crossing. See the XOJ552 flight status page for this flight to view local times or setup timezone preferences in your user account.

Time Position Orientation Groundspeed Altitude Reporting Facility
EST Latitude Longitude Course Direction KTS MPH feet Rate Location/Type
Thu 12:01:30 PM 25.3392 -80.2547 24° Northeast 235 270 1,200  Level Miami Center
Thu 12:02:37 PM 25.4025 -80.2242 24° Northeast 253 291 3,100 1,328 Climbing Miami Center
Thu 12:03:32 PM 25.4689 -80.2353 351° North 268 308 3,900 2,741 Climbing Miami Center
Thu 12:04:33 PM 25.5392 -80.2694 336° Northwest 298 343 8,400 4,426 Climbing Miami Center
Thu 12:05:34 PM 25.5814 -80.3419 303° West 307 353 12,900 4,193 Climbing Miami Center
Thu 12:05:56 PM 25.6147 -80.3522 344° North 310 357 14,200 3,049 Climbing Miami Center
Thu 12:06:35 PM 25.6642 -80.3789 334° Northwest 330 380 16,000 1,900 Climbing Miami Center
Thu 12:06:56 PM 25.6911 -80.3844 349° North 389 448 16,100  Climbing Miami Center
Thu 12:07:56 PM 25.7964 -80.4336 337° Northwest 435 501 16,000 200 Descending Miami Center
Thu 12:08:56 PM 25.8911 -80.4919 331° Northwest 421 484 16,500 1,450 Climbing Miami Center
Thu 12:09:56 PM 25.9728 -80.5683 320° Northwest 398 458 18,900 2,350 Climbing Miami Center
Thu 12:10:56 PM 26.0544 -80.6403 322° Northwest 384 442 21,200 2,000 Climbing Miami Center
Thu 12:11:56 PM 26.1486 -80.7081 327° Northwest 384 442 22,900 2,467 Climbing Miami Center
Thu 12:13:56 PM 26.3517 -80.8514 328° Northwest 409 471 28,600 2,833 Climbing Miami Center
Thu 12:14:56 PM 26.4336 -80.9075 328° Northwest 403 464 31,400 2,100 Climbing Miami Center
Thu 12:15:56 PM 26.5339 -80.9781 328° Northwest 388 447 32,800 950 Climbing Miami Center
Thu 12:16:56 PM 26.6383 -81.0514 328° Northwest 418 481 33,300 750 Climbing Miami Center
Thu 12:17:56 PM 26.7467 -81.1297 327° Northwest 446 513 34,300 1,400 Climbing Miami Center
Thu 12:18:56 PM 26.8469 -81.1986 328° Northwest 462 532 36,100 2,100 Climbing Miami Center
Thu 12:19:56 PM 26.9514 -81.2725 328° Northwest 462 532 38,500 1,900 Climbing Miami Center
Thu 12:20:56 PM 27.0472 -81.3458 326° Northwest 451 519 39,900 850 Climbing Miami Center
Thu 12:21:56 PM 27.1617 -81.4228 329° Northwest 430 495 40,200 650 Climbing Miami Center
Thu 12:22:56 PM 27.2636 -81.4969 327° Northwest 425 489 41,200 1,000 Climbing Miami Center
Thu 12:23:56 PM 27.3556 -81.5636 327° Northwest 430 495 42,200 900 Climbing Miami Center
Thu 12:24:56 PM 27.4533 -81.6331 328° Northwest 425 489 43,000 400 Climbing Miami Center
Thu 12:25:56 PM 27.5633 -81.7103 328° Northwest 425 489 43,000  Level Miami Center
Thu 12:26:56 PM 27.6633 -81.7825 327° Northwest 425 489 43,000  Level Miami Center
Thu 12:27:56 PM 27.7650 -81.8550 328° Northwest 425 489 43,000  Level Miami Center
Thu 12:30:00 PM 27.9778 -82.0067 328° Northwest 449 517 43,000  Level Jacksonville Center
Thu 12:31:00 PM 28.0828 -82.0739 331° Northwest 443 510 43,000  Level Jacksonville Center
Thu 12:32:00 PM 28.1789 -82.1367 330° Northwest 443 510 43,000  Level Jacksonville Center
Thu 12:33:00 PM 28.3067 -82.1925 339° North 443 510 43,000  Level Jacksonville Center
Thu 12:34:00 PM 28.4175 -82.2364 341° North 460 529 43,000  Level Jacksonville Center
Thu 12:35:00 PM 28.5386 -82.2828 341° North 460 529 43,000  Level Jacksonville Center
Thu 12:36:00 PM 28.6619 -82.3342 340° North 460 529 43,000  Level Jacksonville Center
Thu 12:37:00 PM 28.7769 -82.3808 340° North 455 524 43,000  Level Jacksonville Center
Thu 12:38:00 PM 28.8983 -82.4300 340° North 455 524 43,000  Level Jacksonville Center
Thu 12:39:00 PM 29.0194 -82.4769 341° North 455 524 43,000  Level Jacksonville Center
Thu 12:40:00 PM 29.1367 -82.5242 341° North 455 524 43,000  Level Jacksonville Center
Thu 12:41:00 PM 29.2514 -82.5714 340° North 449 517 43,000  Level Jacksonville Center
Thu 12:42:00 PM 29.3706 -82.6186 341° North 449 517 43,000  Level Jacksonville Center
Thu 12:43:00 PM 29.5000 -82.6756 339° North 449 517 43,000  Level Jacksonville Center
Thu 12:44:00 PM 29.6192 -82.7253 340° North 446 513 43,000  Level Jacksonville Center
Thu 12:45:00 PM 29.7383 -82.7731 341° North 451 519 43,000  Level Jacksonville Center
Thu 12:46:00 PM 29.8572 -82.8208 341° North 456 525 43,000  Level Jacksonville Center
Thu 12:47:00 PM 29.9825 -82.8711 341° North 456 525 43,000  Level Jacksonville Center
Thu 12:48:00 PM 30.1058 -82.9189 341° North 467 537 43,000  Level Jacksonville Center
Thu 12:49:00 PM 30.2289 -82.9694 340° North 467 537 43,000  Level Jacksonville Center
Thu 12:50:00 PM 30.3519 -83.0225 340° North 467 537 43,000  Level Jacksonville Center
Thu 12:51:00 PM 30.4772 -83.0708 342° North 467 537 43,000  Level Jacksonville Center
Thu 12:52:00 PM 30.6025 -83.1242 340° North 467 537 43,000 -50 Level Jacksonville Center
Thu 12:53:00 PM 30.7256 -83.1778 339° North 467 537 42,900  Descending Jacksonville Center
Thu 12:54:00 PM 30.8319 -83.2217 340° North 461 531 43,000 50 Climbing Jacksonville Center
Thu 12:55:00 PM 30.9550 -83.2728 340° North 461 531 43,000  Level Jacksonville Center
Thu 12:56:00 PM 31.0800 -83.3267 340° North 466 536 43,000  Level Jacksonville Center
Thu 12:57:00 PM 31.2053 -83.3808 340° North 466 536 43,000  Level Jacksonville Center
Thu 12:58:54 PM 31.4511 -83.4864 340° North 480 552 43,000  Level Atlanta Center
Thu 12:59:54 PM 31.5744 -83.5367 341° North 469 540 43,000  Level Atlanta Center
Thu 01:00:54 PM 31.7000 -83.5897 340° North 470 541 43,000  Level Atlanta Center
Thu 01:01:54 PM 31.8253 -83.6453 339° North 470 541 43,000  Level Atlanta Center
Thu 01:02:54 PM 31.9506 -83.6986 340° North 475 547 43,000  Level Atlanta Center
Thu 01:03:54 PM 32.0739 -83.7519 340° North 475 547 43,000  Level Atlanta Center
Thu 01:04:54 PM 32.1972 -83.8056 340° North 469 540 43,000  Level Atlanta Center
Thu 01:05:54 PM 32.3225 -83.8594 340° North 469 540 43,000  Level Atlanta Center
Thu 01:06:54 PM 32.4458 -83.9133 340° North 469 540 43,000  Level Atlanta Center
Thu 01:07:54 PM 32.5647 -83.9650 340° North 469 540 43,000 -50 Level Atlanta Center
Thu 01:08:53 PM 32.6858 -84.0217 339° North 464 534 42,900 -850 Descending Atlanta Center
Thu 01:09:54 PM 32.8111 -84.0733 341° North 464 534 41,300 -1,438 Descending Atlanta Center
Thu 01:10:54 PM 32.9342 -84.1281 340° North 470 541 40,000 -650 Descending Atlanta Center
Thu 01:11:54 PM 33.0572 -84.1825 340° North 470 541 40,000  Level Atlanta Center
Thu 01:12:54 PM 33.1806 -84.2397 339° North 470 541 40,000  Level Atlanta Center
Thu 01:13:54 PM 33.2992 -84.2922 340° North 464 534 40,000  Level Atlanta Center
Thu 01:14:53 PM 33.4056 -84.3375 340° North 464 534 40,000  Level Atlanta Center
Thu 01:15:54 PM 33.5267 -84.3928 339° North 464 534 40,000  Level Atlanta Center
Thu 01:16:54 PM 33.6411 -84.4456 339° North 453 521 40,000  Level Atlanta Center
Thu 01:17:54 PM 33.7664 -84.4986 341° North 447 514 40,000  Level Atlanta Center
Thu 01:18:54 PM 33.8914 -84.5594 338° Northwest 455 524 40,000  Level Atlanta Center
Thu 01:20:54 PM 34.1056 -84.6811 331° Northwest 455 524 40,000 -1,067 Level Atlanta Center
Thu 01:21:54 PM 34.2325 -84.7550 334° Northwest 460 529 36,800 -2,450 Descending Atlanta Center
Thu 01:22:54 PM 34.3469 -84.8236 334° Northwest 448 516 35,100 -1,613 Descending Atlanta Center
Thu 01:23:53 PM 34.4447 -84.8850 333° Northwest 436 502 33,600 -1,750 Descending Atlanta Center
Thu 01:24:54 PM 34.5569 -84.9544 333° Northwest 436 502 31,600 -1,785 Descending Atlanta Center
Thu 01:25:54 PM 34.6753 -85.0264 333° Northwest 436 502 30,000 -1,550 Descending Atlanta Center
Thu 01:26:54 PM 34.7478 -85.0903 324° Northwest 404 465 28,500 -1,700 Descending Atlanta Center
Thu 01:27:54 PM 34.8453 -85.1650 328° Northwest 396 456 26,600 -2,000 Descending Atlanta Center
Thu 01:28:54 PM 34.9425 -85.2397 328° Northwest 403 464 24,500 -1,311 Descending Atlanta Center
Thu 01:29:53 PM 35.0378 -85.3122 328° Northwest 410 472 24,000 -250 Descending Atlanta Center
Thu 01:30:54 PM 35.1319 -85.3842 328° Northwest 405 466 24,000  Level Memphis Center
Thu 01:31:56 PM 35.2150 -85.4772 318° Northwest 406 467 24,000 -387 Level Memphis Center
Thu 01:32:58 PM 35.3089 -85.5944 314° West 401 461 23,200 -871 Descending Memphis Center
Thu 01:34:00 PM 35.3850 -85.6922 314° West 396 456 22,200 -919 Descending Memphis Center
Thu 01:35:02 PM 35.4586 -85.7867 314° West 386 444 21,300 -919 Descending Memphis Center
Thu 01:36:04 PM 35.5319 -85.8806 314° West 381 438 20,300 -1,452 Descending Memphis Center
Thu 01:37:06 PM 35.6025 -85.9761 312° West 378 435 18,300 -1,839 Descending Memphis Center
Thu 01:38:08 PM 35.6742 -86.0708 313° West 369 425 16,500 -1,790 Descending Memphis Center
Thu 01:39:10 PM 35.7436 -86.1633 313° West 366 421 14,600 -1,839 Descending Memphis Center
Thu 01:40:12 PM 35.8083 -86.2514 312° West 350 403 12,700 -1,887 Descending Memphis Center
Thu 01:41:14 PM 35.8822 -86.3486 313° West 332 382 10,700 -1,790 Descending Memphis Center
Thu 01:42:16 PM 35.9411 -86.4269 313° West 316 364 9,000 -1,500 Descending Memphis Center
Thu 01:43:18 PM 35.9939 -86.4947 314° West 279 321 7,600 -1,306 Descending Memphis Center
Thu 01:44:20 PM 36.0400 -86.5550 313° West 249 287 6,300 -1,258 Descending Memphis Center
Thu 01:45:22 PM 36.1042 -86.5631 354° North 260 299 5,000 -1,113 Descending Memphis Center
Thu 01:46:24 PM 36.1692 -86.5369 18° North 248 285 4,000 -1,016 Descending Memphis Center
Thu 01:47:26 PM 36.2186 -86.5656 335° Northwest 228 262 2,900 -968 Descending Memphis Center
Thu 01:48:28 PM 36.2239 -86.6389 275° West 206 237 2,000 -528 Descending Memphis Center
Thu 01:49:31 PM 36.1833 -86.6556 198° South 165 190 1,800 -432 Descending Memphis Center
Thu 01:50:33 PM 36.1447 -86.6708 198° South 151 174 1,100 -532 Descending Memphis Center
Thu 01:51:35 PM 36.1181 -86.6819 199° South 131 151 700 -387 Descending Memphis Center
Thu 01:53:00 PM 36.1245 -86.6782 47° Northeast  Level Estimated

Login

Don't have an account? Register now (free) for customized features, flight alerts, and more!